sensor_id;sensor_type;location;lat;lon;timestamp;P1;durP1;ratioP1;P2;durP2;ratioP2
71771;SDS011;59606;52.138;5.424;2024-01-15T00:01:58;3.58;;;0.47;;
71771;SDS011;59606;52.138;5.424;2024-01-15T00:04:25;5.90;;;0.90;;
71771;SDS011;59606;52.138;5.424;2024-01-15T00:06:52;4.00;;;0.57;;
71771;SDS011;59606;52.138;5.424;2024-01-15T00:09:18;3.08;;;0.30;;
71771;SDS011;59606;52.138;5.424;2024-01-15T00:11:45;8.88;;;0.98;;
71771;SDS011;59606;52.138;5.424;2024-01-15T00:14:12;3.47;;;0.57;;
71771;SDS011;59606;52.138;5.424;2024-01-15T00:16:40;3.60;;;0.47;;
71771;SDS011;59606;52.138;5.424;2024-01-15T00:19:07;3.88;;;0.85;;
71771;SDS011;59606;52.138;5.424;2024-01-15T00:21:34;1.48;;;0.40;;
71771;SDS011;59606;52.138;5.424;2024-01-15T00:24:01;11.98;;;1.15;;
71771;SDS011;59606;52.138;5.424;2024-01-15T00:26:27;2.60;;;0.60;;
71771;SDS011;59606;52.138;5.424;2024-01-15T00:28:54;8.23;;;0.97;;
71771;SDS011;59606;52.138;5.424;2024-01-15T00:31:21;4.10;;;0.60;;
71771;SDS011;59606;52.138;5.424;2024-01-15T00:33:47;5.18;;;0.50;;
71771;SDS011;59606;52.138;5.424;2024-01-15T00:36:14;3.72;;;1.38;;
71771;SDS011;59606;52.138;5.424;2024-01-15T00:38:43;4.95;;;0.47;;
71771;SDS011;59606;52.138;5.424;2024-01-15T00:41:10;1.93;;;0.33;;
71771;SDS011;59606;52.138;5.424;2024-01-15T00:43:37;5.10;;;0.75;;
71771;SDS011;59606;52.138;5.424;2024-01-15T00:46:03;4.78;;;0.80;;
71771;SDS011;59606;52.138;5.424;2024-01-15T00:48:30;3.67;;;0.60;;
71771;SDS011;59606;52.138;5.424;2024-01-15T00:50:57;2.90;;;0.43;;
71771;SDS011;59606;52.138;5.424;2024-01-15T00:53:23;6.97;;;1.00;;
71771;SDS011;59606;52.138;5.424;2024-01-15T00:55:50;4.55;;;1.02;;
71771;SDS011;59606;52.138;5.424;2024-01-15T00:58:16;3.92;;;0.60;;
71771;SDS011;59606;52.138;5.424;2024-01-15T01:00:43;5.50;;;0.65;;
71771;SDS011;59606;52.138;5.424;2024-01-15T01:03:09;3.08;;;0.65;;
71771;SDS011;59606;52.138;5.424;2024-01-15T01:05:36;3.37;;;0.60;;
71771;SDS011;59606;52.138;5.424;2024-01-15T01:08:04;4.45;;;0.40;;
71771;SDS011;59606;52.138;5.424;2024-01-15T01:10:30;4.78;;;0.95;;
71771;SDS011;59606;52.138;5.424;2024-01-15T01:12:57;4.68;;;1.00;;
71771;SDS011;59606;52.138;5.424;2024-01-15T01:15:23;5.30;;;0.60;;
71771;SDS011;59606;52.138;5.424;2024-01-15T01:17:50;5.13;;;0.90;;
71771;SDS011;59606;52.138;5.424;2024-01-15T01:20:17;0.98;;;0.38;;
71771;SDS011;59606;52.138;5.424;2024-01-15T01:22:44;5.82;;;0.77;;
71771;SDS011;59606;52.138;5.424;2024-01-15T01:25:11;8.90;;;0.50;;
71771;SDS011;59606;52.138;5.424;2024-01-15T01:27:38;5.07;;;0.77;;
71771;SDS011;59606;52.138;5.424;2024-01-15T01:30:05;5.33;;;1.03;;
71771;SDS011;59606;52.138;5.424;2024-01-15T01:32:32;2.55;;;0.45;;
71771;SDS011;59606;52.138;5.424;2024-01-15T01:34:58;3.80;;;0.55;;
71771;SDS011;59606;52.138;5.424;2024-01-15T01:37:25;11.10;;;1.05;;
71771;SDS011;59606;52.138;5.424;2024-01-15T01:39:52;7.45;;;0.90;;
71771;SDS011;59606;52.138;5.424;2024-01-15T01:42:18;9.63;;;0.70;;
71771;SDS011;59606;52.138;5.424;2024-01-15T01:44:45;10.15;;;0.55;;
71771;SDS011;59606;52.138;5.424;2024-01-15T01:47:11;6.72;;;0.85;;
71771;SDS011;59606;52.138;5.424;2024-01-15T01:49:39;12.18;;;0.70;;
71771;SDS011;59606;52.138;5.424;2024-01-15T01:52:06;5.72;;;0.75;;
71771;SDS011;59606;52.138;5.424;2024-01-15T01:54:33;4.03;;;0.60;;
71771;SDS011;59606;52.138;5.424;2024-01-15T01:57:02;6.90;;;0.85;;
71771;SDS011;59606;52.138;5.424;2024-01-15T01:59:30;2.60;;;0.63;;
71771;SDS011;59606;52.138;5.424;2024-01-15T02:01:58;3.53;;;0.32;;
71771;SDS011;59606;52.138;5.424;2024-01-15T02:04:28;2.95;;;0.82;;
71771;SDS011;59606;52.138;5.424;2024-01-15T02:06:56;6.90;;;0.83;;
71771;SDS011;59606;52.138;5.424;2024-01-15T02:09:23;6.93;;;1.17;;
71771;SDS011;59606;52.138;5.424;2024-01-15T02:11:49;6.53;;;0.47;;
71771;SDS011;59606;52.138;5.424;2024-01-15T02:14:16;5.45;;;0.40;;
71771;SDS011;59606;52.138;5.424;2024-01-15T02:16:43;8.38;;;0.63;;
71771;SDS011;59606;52.138;5.424;2024-01-15T02:19:16;6.33;;;0.77;;
71771;SDS011;59606;52.138;5.424;2024-01-15T02:21:43;1.23;;;0.40;;
71771;SDS011;59606;52.138;5.424;2024-01-15T02:24:11;3.25;;;0.20;;
71771;SDS011;59606;52.138;5.424;2024-01-15T02:26:38;6.90;;;0.52;;
71771;SDS011;59606;52.138;5.424;2024-01-15T02:29:06;5.20;;;0.85;;
71771;SDS011;59606;52.138;5.424;2024-01-15T02:31:36;1.60;;;0.40;;
71771;SDS011;59606;52.138;5.424;2024-01-15T02:34:04;11.23;;;0.70;;
71771;SDS011;59606;52.138;5.424;2024-01-15T02:36:30;2.20;;;0.50;;
71771;SDS011;59606;52.138;5.424;2024-01-15T02:38:57;2.92;;;0.32;;
71771;SDS011;59606;52.138;5.424;2024-01-15T02:41:24;5.93;;;0.80;;
71771;SDS011;59606;52.138;5.424;2024-01-15T02:43:50;1.07;;;0.27;;
71771;SDS011;59606;52.138;5.424;2024-01-15T02:46:16;2.60;;;0.50;;
71771;SDS011;59606;52.138;5.424;2024-01-15T02:48:43;3.92;;;0.50;;
71771;SDS011;59606;52.138;5.424;2024-01-15T02:51:10;2.53;;;0.57;;
71771;SDS011;59606;52.138;5.424;2024-01-15T02:53:37;2.85;;;0.32;;
71771;SDS011;59606;52.138;5.424;2024-01-15T02:56:06;5.27;;;0.30;;
71771;SDS011;59606;52.138;5.424;2024-01-15T02:58:33;1.20;;;0.35;;
71771;SDS011;59606;52.138;5.424;2024-01-15T03:01:00;4.15;;;0.20;;
71771;SDS011;59606;52.138;5.424;2024-01-15T03:03:27;6.72;;;0.50;;
71771;SDS011;59606;52.138;5.424;2024-01-15T03:05:54;0.93;;;0.68;;
71771;SDS011;59606;52.138;5.424;2024-01-15T03:08:21;4.80;;;0.40;;
71771;SDS011;59606;52.138;5.424;2024-01-15T03:10:49;6.45;;;0.38;;
71771;SDS011;59606;52.138;5.424;2024-01-15T03:13:15;0.50;;;0.30;;
71771;SDS011;59606;52.138;5.424;2024-01-15T03:15:42;5.97;;;0.68;;
71771;SDS011;59606;52.138;5.424;2024-01-15T03:18:09;1.23;;;0.20;;
71771;SDS011;59606;52.138;5.424;2024-01-15T03:20:36;5.63;;;0.40;;
71771;SDS011;59606;52.138;5.424;2024-01-15T03:23:02;1.88;;;0.40;;
71771;SDS011;59606;52.138;5.424;2024-01-15T03:25:29;4.15;;;0.55;;
71771;SDS011;59606;52.138;5.424;2024-01-15T03:27:55;2.97;;;0.73;;
71771;SDS011;59606;52.138;5.424;2024-01-15T03:30:22;4.95;;;0.30;;
71771;SDS011;59606;52.138;5.424;2024-01-15T03:32:49;2.40;;;0.40;;
71771;SDS011;59606;52.138;5.424;2024-01-15T03:35:16;0.20;;;0.20;;
71771;SDS011;59606;52.138;5.424;2024-01-15T03:37:43;4.25;;;0.38;;
71771;SDS011;59606;52.138;5.424;2024-01-15T03:40:09;2.63;;;0.20;;
71771;SDS011;59606;52.138;5.424;2024-01-15T03:42:36;2.03;;;0.32;;
71771;SDS011;59606;52.138;5.424;2024-01-15T03:45:03;4.47;;;0.40;;
71771;SDS011;59606;52.138;5.424;2024-01-15T03:47:30;4.00;;;0.25;;
71771;SDS011;59606;52.138;5.424;2024-01-15T03:49:56;9.40;;;0.50;;
71771;SDS011;59606;52.138;5.424;2024-01-15T03:52:23;5.68;;;0.40;;
71771;SDS011;59606;52.138;5.424;2024-01-15T03:54:49;3.70;;;0.38;;
71771;SDS011;59606;52.138;5.424;2024-01-15T03:57:16;2.00;;;0.40;;
71771;SDS011;59606;52.138;5.424;2024-01-15T03:59:42;3.33;;;0.63;;
71771;SDS011;59606;52.138;5.424;2024-01-15T04:02:09;6.95;;;0.47;;
71771;SDS011;59606;52.138;5.424;2024-01-15T04:04:36;1.80;;;0.55;;
71771;SDS011;59606;52.138;5.424;2024-01-15T04:07:06;3.00;;;0.17;;
71771;SDS011;59606;52.138;5.424;2024-01-15T04:09:33;3.40;;;0.70;;
71771;SDS011;59606;52.138;5.424;2024-01-15T04:12:00;0.30;;;0.20;;
71771;SDS011;59606;52.138;5.424;2024-01-15T04:14:26;0.93;;;0.30;;
71771;SDS011;59606;52.138;5.424;2024-01-15T04:16:52;1.30;;;0.17;;
71771;SDS011;59606;52.138;5.424;2024-01-15T04:19:19;2.22;;;0.50;;
71771;SDS011;59606;52.138;5.424;2024-01-15T04:21:46;2.07;;;0.37;;
71771;SDS011;59606;52.138;5.424;2024-01-15T04:24:13;1.38;;;0.57;;
71771;SDS011;59606;52.138;5.424;2024-01-15T04:26:39;3.78;;;0.38;;
71771;SDS011;59606;52.138;5.424;2024-01-15T04:29:06;4.50;;;0.30;;
71771;SDS011;59606;52.138;5.424;2024-01-15T04:31:32;1.38;;;0.25;;
71771;SDS011;59606;52.138;5.424;2024-01-15T04:33:59;2.27;;;0.70;;
71771;SDS011;59606;52.138;5.424;2024-01-15T04:36:26;4.47;;;0.40;;
71771;SDS011;59606;52.138;5.424;2024-01-15T04:38:52;2.63;;;0.70;;
71771;SDS011;59606;52.138;5.424;2024-01-15T04:41:19;0.35;;;0.28;;
71771;SDS011;59606;52.138;5.424;2024-01-15T04:43:46;1.15;;;0.20;;
71771;SDS011;59606;52.138;5.424;2024-01-15T04:46:12;0.30;;;0.30;;
71771;SDS011;59606;52.138;5.424;2024-01-15T04:48:39;3.70;;;0.93;;
71771;SDS011;59606;52.138;5.424;2024-01-15T04:51:06;2.75;;;0.45;;
71771;SDS011;59606;52.138;5.424;2024-01-15T04:53:35;3.15;;;0.32;;
71771;SDS011;59606;52.138;5.424;2024-01-15T04:56:02;2.10;;;0.25;;
71771;SDS011;59606;52.138;5.424;2024-01-15T04:58:28;1.93;;;0.30;;
71771;SDS011;59606;52.138;5.424;2024-01-15T05:00:55;11.02;;;0.57;;
71771;SDS011;59606;52.138;5.424;2024-01-15T05:03:22;1.83;;;0.47;;
71771;SDS011;59606;52.138;5.424;2024-01-15T05:05:49;3.72;;;0.43;;
71771;SDS011;59606;52.138;5.424;2024-01-15T05:08:15;1.73;;;0.40;;
71771;SDS011;59606;52.138;5.424;2024-01-15T05:10:42;3.67;;;0.53;;
71771;SDS011;59606;52.138;5.424;2024-01-15T05:13:09;12.05;;;0.70;;
71771;SDS011;59606;52.138;5.424;2024-01-15T05:15:35;3.22;;;0.60;;
71771;SDS011;59606;52.138;5.424;2024-01-15T05:18:02;3.22;;;0.40;;
71771;SDS011;59606;52.138;5.424;2024-01-15T05:20:28;3.60;;;0.55;;
71771;SDS011;59606;52.138;5.424;2024-01-15T05:22:55;11.73;;;0.80;;
71771;SDS011;59606;52.138;5.424;2024-01-15T05:25:21;8.50;;;0.60;;
71771;SDS011;59606;52.138;5.424;2024-01-15T05:27:48;6.97;;;0.70;;
71771;SDS011;59606;52.138;5.424;2024-01-15T05:30:15;5.68;;;0.65;;
71771;SDS011;59606;52.138;5.424;2024-01-15T05:32:43;3.65;;;0.63;;
71771;SDS011;59606;52.138;5.424;2024-01-15T05:35:09;13.27;;;0.97;;
71771;SDS011;59606;52.138;5.424;2024-01-15T05:37:36;5.78;;;0.25;;
71771;SDS011;59606;52.138;5.424;2024-01-15T05:40:03;0.70;;;0.32;;
71771;SDS011;59606;52.138;5.424;2024-01-15T05:42:31;3.92;;;0.45;;
71771;SDS011;59606;52.138;5.424;2024-01-15T05:44:58;2.20;;;0.40;;
71771;SDS011;59606;52.138;5.424;2024-01-15T05:47:26;2.70;;;0.50;;
71771;SDS011;59606;52.138;5.424;2024-01-15T05:49:52;2.80;;;0.32;;
71771;SDS011;59606;52.138;5.424;2024-01-15T05:52:19;2.85;;;0.40;;
71771;SDS011;59606;52.138;5.424;2024-01-15T05:54:47;7.95;;;0.88;;
71771;SDS011;59606;52.138;5.424;2024-01-15T05:57:14;1.33;;;0.32;;
71771;SDS011;59606;52.138;5.424;2024-01-15T05:59:40;3.13;;;1.00;;
71771;SDS011;59606;52.138;5.424;2024-01-15T06:02:07;4.07;;;0.45;;
71771;SDS011;59606;52.138;5.424;2024-01-15T06:04:33;3.03;;;0.45;;
71771;SDS011;59606;52.138;5.424;2024-01-15T06:07:00;5.03;;;0.55;;
71771;SDS011;59606;52.138;5.424;2024-01-15T06:09:27;3.40;;;0.50;;
71771;SDS011;59606;52.138;5.424;2024-01-15T06:11:55;6.13;;;0.60;;
71771;SDS011;59606;52.138;5.424;2024-01-15T06:14:21;1.70;;;0.50;;
71771;SDS011;59606;52.138;5.424;2024-01-15T06:16:48;2.25;;;0.40;;
71771;SDS011;59606;52.138;5.424;2024-01-15T06:19:15;3.65;;;0.50;;
71771;SDS011;59606;52.138;5.424;2024-01-15T06:21:42;2.00;;;0.38;;
71771;SDS011;59606;52.138;5.424;2024-01-15T06:24:08;2.40;;;0.40;;
71771;SDS011;59606;52.138;5.424;2024-01-15T06:26:36;1.92;;;0.30;;
71771;SDS011;59606;52.138;5.424;2024-01-15T06:29:03;2.65;;;0.40;;
71771;SDS011;59606;52.138;5.424;2024-01-15T06:31:29;1.00;;;0.30;;
71771;SDS011;59606;52.138;5.424;2024-01-15T06:33:56;6.28;;;0.88;;
71771;SDS011;59606;52.138;5.424;2024-01-15T06:36:23;6.97;;;0.70;;
71771;SDS011;59606;52.138;5.424;2024-01-15T06:38:49;10.38;;;0.57;;
71771;SDS011;59606;52.138;5.424;2024-01-15T06:41:16;6.72;;;0.77;;
71771;SDS011;59606;52.138;5.424;2024-01-15T06:43:42;2.92;;;0.50;;
71771;SDS011;59606;52.138;5.424;2024-01-15T06:46:09;5.20;;;0.57;;
71771;SDS011;59606;52.138;5.424;2024-01-15T06:48:36;2.10;;;0.63;;
71771;SDS011;59606;52.138;5.424;2024-01-15T06:51:02;3.20;;;0.40;;
71771;SDS011;59606;52.138;5.424;2024-01-15T06:53:29;3.33;;;0.70;;
71771;SDS011;59606;52.138;5.424;2024-01-15T06:55:55;5.25;;;1.23;;
71771;SDS011;59606;52.138;5.424;2024-01-15T06:58:22;6.32;;;2.38;;
71771;SDS011;59606;52.138;5.424;2024-01-15T07:00:49;3.90;;;1.60;;
71771;SDS011;59606;52.138;5.424;2024-01-15T07:03:15;4.05;;;1.13;;
71771;SDS011;59606;52.138;5.424;2024-01-15T07:05:42;3.63;;;1.17;;
71771;SDS011;59606;52.138;5.424;2024-01-15T07:08:08;3.78;;;1.23;;
71771;SDS011;59606;52.138;5.424;2024-01-15T07:10:35;4.88;;;1.35;;
71771;SDS011;59606;52.138;5.424;2024-01-15T07:13:03;4.80;;;1.00;;
71771;SDS011;59606;52.138;5.424;2024-01-15T07:15:31;2.92;;;1.23;;
71771;SDS011;59606;52.138;5.424;2024-01-15T07:17:57;2.72;;;0.80;;
71771;SDS011;59606;52.138;5.424;2024-01-15T07:20:24;4.28;;;1.00;;
71771;SDS011;59606;52.138;5.424;2024-01-15T07:22:51;3.65;;;0.70;;
71771;SDS011;59606;52.138;5.424;2024-01-15T07:25:17;4.23;;;0.80;;
71771;SDS011;59606;52.138;5.424;2024-01-15T07:27:44;6.70;;;1.98;;
71771;SDS011;59606;52.138;5.424;2024-01-15T07:30:11;5.53;;;1.23;;
71771;SDS011;59606;52.138;5.424;2024-01-15T07:32:38;4.63;;;0.90;;
71771;SDS011;59606;52.138;5.424;2024-01-15T07:35:05;2.47;;;1.00;;
71771;SDS011;59606;52.138;5.424;2024-01-15T07:37:32;3.03;;;1.33;;
71771;SDS011;59606;52.138;5.424;2024-01-15T07:39:59;2.50;;;0.70;;
71771;SDS011;59606;52.138;5.424;2024-01-15T07:42:26;1.92;;;0.70;;
71771;SDS011;59606;52.138;5.424;2024-01-15T07:44:53;8.25;;;0.75;;
71771;SDS011;59606;52.138;5.424;2024-01-15T07:47:20;4.40;;;0.90;;
71771;SDS011;59606;52.138;5.424;2024-01-15T07:49:46;2.63;;;0.80;;
71771;SDS011;59606;52.138;5.424;2024-01-15T07:52:13;3.65;;;0.80;;
71771;SDS011;59606;52.138;5.424;2024-01-15T07:54:40;1.75;;;0.85;;
71771;SDS011;59606;52.138;5.424;2024-01-15T07:57:07;5.32;;;1.02;;
71771;SDS011;59606;52.138;5.424;2024-01-15T07:59:34;2.58;;;0.70;;
71771;SDS011;59606;52.138;5.424;2024-01-15T08:02:02;2.33;;;1.17;;
71771;SDS011;59606;52.138;5.424;2024-01-15T08:04:28;4.03;;;0.73;;
71771;SDS011;59606;52.138;5.424;2024-01-15T08:06:56;3.65;;;0.98;;
71771;SDS011;59606;52.138;5.424;2024-01-15T08:09:23;1.63;;;0.70;;
71771;SDS011;59606;52.138;5.424;2024-01-15T08:11:50;5.30;;;1.17;;
71771;SDS011;59606;52.138;5.424;2024-01-15T08:14:17;5.87;;;1.50;;
71771;SDS011;59606;52.138;5.424;2024-01-15T08:16:44;11.13;;;2.90;;
71771;SDS011;59606;52.138;5.424;2024-01-15T08:19:10;7.53;;;2.90;;
71771;SDS011;59606;52.138;5.424;2024-01-15T08:21:37;6.63;;;2.65;;
71771;SDS011;59606;52.138;5.424;2024-01-15T08:24:04;5.57;;;2.10;;
71771;SDS011;59606;52.138;5.424;2024-01-15T08:26:31;7.40;;;1.80;;
71771;SDS011;59606;52.138;5.424;2024-01-15T08:29:01;4.03;;;1.63;;
71771;SDS011;59606;52.138;5.424;2024-01-15T08:31:27;5.40;;;1.50;;
71771;SDS011;59606;52.138;5.424;2024-01-15T08:33:54;6.95;;;1.75;;
71771;SDS011;59606;52.138;5.424;2024-01-15T08:36:22;14.38;;;1.67;;
71771;SDS011;59606;52.138;5.424;2024-01-15T08:38:50;3.10;;;1.13;;
71771;SDS011;59606;52.138;5.424;2024-01-15T08:41:17;7.47;;;1.17;;
71771;SDS011;59606;52.138;5.424;2024-01-15T08:43:43;2.95;;;1.08;;
71771;SDS011;59606;52.138;5.424;2024-01-15T08:46:10;2.28;;;1.10;;
71771;SDS011;59606;52.138;5.424;2024-01-15T08:48:36;5.60;;;0.63;;
71771;SDS011;59606;52.138;5.424;2024-01-15T08:51:03;4.90;;;0.70;;
71771;SDS011;59606;52.138;5.424;2024-01-15T08:53:30;5.72;;;0.88;;
71771;SDS011;59606;52.138;5.424;2024-01-15T08:55:56;5.55;;;0.80;;
71771;SDS011;59606;52.138;5.424;2024-01-15T08:58:23;5.07;;;0.70;;
71771;SDS011;59606;52.138;5.424;2024-01-15T09:00:51;6.82;;;0.90;;
71771;SDS011;59606;52.138;5.424;2024-01-15T09:03:18;6.10;;;0.70;;
71771;SDS011;59606;52.138;5.424;2024-01-15T09:05:44;3.45;;;0.52;;
71771;SDS011;59606;52.138;5.424;2024-01-15T09:08:11;8.27;;;0.80;;
71771;SDS011;59606;52.138;5.424;2024-01-15T09:10:38;3.72;;;1.10;;
71771;SDS011;59606;52.138;5.424;2024-01-15T09:13:04;7.72;;;1.40;;
71771;SDS011;59606;52.138;5.424;2024-01-15T09:15:31;3.33;;;0.80;;
71771;SDS011;59606;52.138;5.424;2024-01-15T09:17:57;3.58;;;1.02;;
71771;SDS011;59606;52.138;5.424;2024-01-15T09:20:25;3.75;;;0.75;;
71771;SDS011;59606;52.138;5.424;2024-01-15T09:22:53;4.13;;;0.68;;
71771;SDS011;59606;52.138;5.424;2024-01-15T09:25:20;6.55;;;0.60;;
71771;SDS011;59606;52.138;5.424;2024-01-15T09:27:46;4.90;;;0.57;;
71771;SDS011;59606;52.138;5.424;2024-01-15T09:30:13;3.17;;;0.80;;
71771;SDS011;59606;52.138;5.424;2024-01-15T09:32:40;3.58;;;0.43;;
71771;SDS011;59606;52.138;5.424;2024-01-15T09:35:06;12.98;;;0.55;;
71771;SDS011;59606;52.138;5.424;2024-01-15T09:37:34;7.13;;;0.90;;
71771;SDS011;59606;52.138;5.424;2024-01-15T09:40:13;7.83;;;0.93;;
71771;SDS011;59606;52.138;5.424;2024-01-15T09:42:43;5.05;;;1.10;;
71771;SDS011;59606;52.138;5.424;2024-01-15T09:45:11;3.60;;;0.50;;
71771;SDS011;59606;52.138;5.424;2024-01-15T09:47:38;1.63;;;0.77;;
71771;SDS011;59606;52.138;5.424;2024-01-15T09:50:11;3.40;;;1.33;;
71771;SDS011;59606;52.138;5.424;2024-01-15T09:52:40;5.27;;;1.17;;
71771;SDS011;59606;52.138;5.424;2024-01-15T09:55:07;2.65;;;0.65;;
71771;SDS011;59606;52.138;5.424;2024-01-15T09:57:36;3.90;;;0.60;;
71771;SDS011;59606;52.138;5.424;2024-01-15T10:00:03;4.70;;;0.75;;
71771;SDS011;59606;52.138;5.424;2024-01-15T10:02:33;5.82;;;0.80;;
71771;SDS011;59606;52.138;5.424;2024-01-15T10:05:02;4.97;;;0.67;;
71771;SDS011;59606;52.138;5.424;2024-01-15T10:07:30;1.25;;;0.30;;
71771;SDS011;59606;52.138;5.424;2024-01-15T10:10:01;7.10;;;0.75;;
71771;SDS011;59606;52.138;5.424;2024-01-15T10:12:30;5.68;;;0.70;;
71771;SDS011;59606;52.138;5.424;2024-01-15T10:14:57;1.85;;;0.50;;
71771;SDS011;59606;52.138;5.424;2024-01-15T10:17:24;1.30;;;0.47;;
71771;SDS011;59606;52.138;5.424;2024-01-15T10:19:51;4.25;;;0.90;;
71771;SDS011;59606;52.138;5.424;2024-01-15T10:22:18;3.60;;;0.60;;
71771;SDS011;59606;52.138;5.424;2024-01-15T10:24:45;4.00;;;0.60;;
71771;SDS011;59606;52.138;5.424;2024-01-15T10:27:14;5.43;;;0.75;;
71771;SDS011;59606;52.138;5.424;2024-01-15T10:29:42;3.33;;;0.60;;
71771;SDS011;59606;52.138;5.424;2024-01-15T10:32:09;4.88;;;0.80;;
71771;SDS011;59606;52.138;5.424;2024-01-15T10:34:39;7.35;;;0.95;;
71771;SDS011;59606;52.138;5.424;2024-01-15T10:37:08;3.75;;;0.50;;
71771;SDS011;59606;52.138;5.424;2024-01-15T10:39:35;3.42;;;0.28;;
71771;SDS011;59606;52.138;5.424;2024-01-15T10:42:03;5.27;;;0.70;;
71771;SDS011;59606;52.138;5.424;2024-01-15T10:44:30;2.03;;;0.65;;
71771;SDS011;59606;52.138;5.424;2024-01-15T10:46:57;5.38;;;0.85;;
71771;SDS011;59606;52.138;5.424;2024-01-15T10:49:24;4.22;;;0.82;;
71771;SDS011;59606;52.138;5.424;2024-01-15T10:51:58;2.67;;;0.60;;
71771;SDS011;59606;52.138;5.424;2024-01-15T10:54:26;8.07;;;0.60;;
71771;SDS011;59606;52.138;5.424;2024-01-15T10:56:53;1.67;;;0.40;;
71771;SDS011;59606;52.138;5.424;2024-01-15T10:59:22;2.80;;;0.43;;
71771;SDS011;59606;52.138;5.424;2024-01-15T11:01:49;6.70;;;0.50;;
71771;SDS011;59606;52.138;5.424;2024-01-15T11:04:20;6.43;;;0.77;;
71771;SDS011;59606;52.138;5.424;2024-01-15T11:06:50;7.97;;;0.83;;
71771;SDS011;59606;52.138;5.424;2024-01-15T11:09:21;6.30;;;0.80;;
71771;SDS011;59606;52.138;5.424;2024-01-15T11:11:47;9.52;;;1.80;;
71771;SDS011;59606;52.138;5.424;2024-01-15T11:17:27;1.83;;;0.35;;
71771;SDS011;59606;52.138;5.424;2024-01-15T11:20:32;1.37;;;0.40;;
71771;SDS011;59606;52.138;5.424;2024-01-15T11:22:58;6.20;;;0.88;;
71771;SDS011;59606;52.138;5.424;2024-01-15T11:25:32;4.13;;;0.45;;
71771;SDS011;59606;52.138;5.424;2024-01-15T11:28:03;5.82;;;0.50;;
71771;SDS011;59606;52.138;5.424;2024-01-15T11:30:30;4.78;;;0.52;;
71771;SDS011;59606;52.138;5.424;2024-01-15T11:32:57;2.63;;;0.47;;
71771;SDS011;59606;52.138;5.424;2024-01-15T11:35:23;5.55;;;0.80;;
71771;SDS011;59606;52.138;5.424;2024-01-15T11:38:26;3.42;;;0.40;;
71771;SDS011;59606;52.138;5.424;2024-01-15T11:40:54;3.90;;;0.60;;
71771;SDS011;59606;52.138;5.424;2024-01-15T11:43:20;0.80;;;0.35;;
71771;SDS011;59606;52.138;5.424;2024-01-15T11:45:49;5.20;;;0.50;;
71771;SDS011;59606;52.138;5.424;2024-01-15T11:48:18;0.50;;;0.20;;
71771;SDS011;59606;52.138;5.424;2024-01-15T11:50:46;6.40;;;0.50;;
71771;SDS011;59606;52.138;5.424;2024-01-15T11:56:14;2.42;;;0.30;;
71771;SDS011;59606;52.138;5.424;2024-01-15T11:58:44;3.43;;;0.57;;
71771;SDS011;59606;52.138;5.424;2024-01-15T12:01:11;8.02;;;0.85;;
71771;SDS011;59606;52.138;5.424;2024-01-15T12:03:38;5.38;;;0.60;;
71771;SDS011;59606;52.138;5.424;2024-01-15T12:06:06;4.10;;;0.47;;
71771;SDS011;59606;52.138;5.424;2024-01-15T12:08:33;3.17;;;0.40;;
71771;SDS011;59606;52.138;5.424;2024-01-15T12:11:01;4.07;;;0.57;;
71771;SDS011;59606;52.138;5.424;2024-01-15T12:13:33;1.30;;;0.30;;
71771;SDS011;59606;52.138;5.424;2024-01-15T12:16:00;3.53;;;0.70;;
71771;SDS011;59606;52.138;5.424;2024-01-15T12:18:29;1.38;;;0.40;;
71771;SDS011;59606;52.138;5.424;2024-01-15T12:20:56;1.50;;;0.30;;
71771;SDS011;59606;52.138;5.424;2024-01-15T12:23:23;1.47;;;0.67;;
71771;SDS011;59606;52.138;5.424;2024-01-15T12:25:50;4.63;;;0.40;;
71771;SDS011;59606;52.138;5.424;2024-01-15T12:28:16;2.47;;;0.60;;
71771;SDS011;59606;52.138;5.424;2024-01-15T12:30:46;1.15;;;0.40;;
71771;SDS011;59606;52.138;5.424;2024-01-15T12:33:17;1.85;;;0.30;;
71771;SDS011;59606;52.138;5.424;2024-01-15T12:35:44;2.53;;;0.50;;
71771;SDS011;59606;52.138;5.424;2024-01-15T12:38:11;3.97;;;0.88;;
71771;SDS011;59606;52.138;5.424;2024-01-15T12:40:38;1.50;;;0.35;;
71771;SDS011;59606;52.138;5.424;2024-01-15T12:43:05;2.15;;;0.47;;
71771;SDS011;59606;52.138;5.424;2024-01-15T12:45:33;1.55;;;0.55;;
71771;SDS011;59606;52.138;5.424;2024-01-15T12:48:02;2.87;;;0.43;;
71771;SDS011;59606;52.138;5.424;2024-01-15T12:50:29;2.72;;;0.47;;
71771;SDS011;59606;52.138;5.424;2024-01-15T12:52:59;1.52;;;0.63;;
71771;SDS011;59606;52.138;5.424;2024-01-15T12:55:26;4.40;;;0.40;;
71771;SDS011;59606;52.138;5.424;2024-01-15T12:57:52;3.30;;;0.63;;
71771;SDS011;59606;52.138;5.424;2024-01-15T13:00:21;3.50;;;0.50;;
71771;SDS011;59606;52.138;5.424;2024-01-15T13:02:48;3.78;;;0.77;;
71771;SDS011;59606;52.138;5.424;2024-01-15T13:05:16;3.83;;;0.82;;
71771;SDS011;59606;52.138;5.424;2024-01-15T13:07:43;5.10;;;0.50;;
71771;SDS011;59606;52.138;5.424;2024-01-15T13:10:10;4.20;;;0.80;;
71771;SDS011;59606;52.138;5.424;2024-01-15T13:12:37;3.87;;;0.30;;
71771;SDS011;59606;52.138;5.424;2024-01-15T13:15:05;1.42;;;0.40;;
71771;SDS011;59606;52.138;5.424;2024-01-15T13:17:34;3.95;;;0.60;;
71771;SDS011;59606;52.138;5.424;2024-01-15T13:20:00;5.28;;;0.60;;
71771;SDS011;59606;52.138;5.424;2024-01-15T13:22:27;3.90;;;0.70;;
71771;SDS011;59606;52.138;5.424;2024-01-15T13:24:59;1.00;;;0.30;;
71771;SDS011;59606;52.138;5.424;2024-01-15T13:27:26;2.45;;;0.55;;
71771;SDS011;59606;52.138;5.424;2024-01-15T13:29:53;5.65;;;0.80;;
71771;SDS011;59606;52.138;5.424;2024-01-15T13:32:22;5.28;;;1.13;;
71771;SDS011;59606;52.138;5.424;2024-01-15T13:34:52;3.20;;;0.55;;
71771;SDS011;59606;52.138;5.424;2024-01-15T13:37:19;3.83;;;0.60;;
71771;SDS011;59606;52.138;5.424;2024-01-15T13:39:45;8.73;;;0.88;;
71771;SDS011;59606;52.138;5.424;2024-01-15T13:42:12;4.85;;;1.05;;
71771;SDS011;59606;52.138;5.424;2024-01-15T13:44:38;3.42;;;0.73;;
71771;SDS011;59606;52.138;5.424;2024-01-15T13:47:05;6.88;;;0.95;;
71771;SDS011;59606;52.138;5.424;2024-01-15T13:49:32;7.87;;;1.30;;
71771;SDS011;59606;52.138;5.424;2024-01-15T13:52:00;4.07;;;0.77;;
71771;SDS011;59606;52.138;5.424;2024-01-15T13:54:27;2.40;;;0.77;;
71771;SDS011;59606;52.138;5.424;2024-01-15T13:57:13;4.05;;;0.50;;
71771;SDS011;59606;52.138;5.424;2024-01-15T13:59:41;1.88;;;0.75;;
71771;SDS011;59606;52.138;5.424;2024-01-15T14:02:08;7.23;;;0.80;;
71771;SDS011;59606;52.138;5.424;2024-01-15T14:04:36;5.80;;;1.10;;
71771;SDS011;59606;52.138;5.424;2024-01-15T14:07:03;9.32;;;1.15;;
71771;SDS011;59606;52.138;5.424;2024-01-15T14:09:30;6.32;;;0.70;;
71771;SDS011;59606;52.138;5.424;2024-01-15T14:11:58;7.10;;;0.63;;
71771;SDS011;59606;52.138;5.424;2024-01-15T14:14:25;4.80;;;1.00;;
71771;SDS011;59606;52.138;5.424;2024-01-15T14:16:52;9.40;;;0.70;;
71771;SDS011;59606;52.138;5.424;2024-01-15T14:19:19;8.77;;;0.80;;
71771;SDS011;59606;52.138;5.424;2024-01-15T14:21:47;4.07;;;0.52;;
71771;SDS011;59606;52.138;5.424;2024-01-15T14:24:14;6.28;;;0.50;;
71771;SDS011;59606;52.138;5.424;2024-01-15T14:26:40;3.00;;;0.90;;
71771;SDS011;59606;52.138;5.424;2024-01-15T14:29:07;3.58;;;0.60;;
71771;SDS011;59606;52.138;5.424;2024-01-15T14:31:34;4.97;;;1.10;;
71771;SDS011;59606;52.138;5.424;2024-01-15T14:34:01;3.55;;;0.57;;
71771;SDS011;59606;52.138;5.424;2024-01-15T14:36:29;5.63;;;0.60;;
71771;SDS011;59606;52.138;5.424;2024-01-15T14:38:56;11.23;;;1.27;;
71771;SDS011;59606;52.138;5.424;2024-01-15T14:41:23;5.38;;;0.70;;
71771;SDS011;59606;52.138;5.424;2024-01-15T14:43:50;2.75;;;1.08;;
71771;SDS011;59606;52.138;5.424;2024-01-15T14:46:16;6.40;;;0.60;;
71771;SDS011;59606;52.138;5.424;2024-01-15T14:48:43;3.10;;;0.75;;
71771;SDS011;59606;52.138;5.424;2024-01-15T14:51:11;4.50;;;0.90;;
71771;SDS011;59606;52.138;5.424;2024-01-15T14:53:38;2.75;;;0.90;;
71771;SDS011;59606;52.138;5.424;2024-01-15T14:56:06;5.60;;;0.90;;